sensor_id;sensor_type;location;lat;lon;timestamp;P1;durP1;ratioP1;P2;durP2;ratioP2
14778;SDS011;7481;53.750;10.570;2023-03-01T00:00:29;4.77;;;3.30;;
14778;SDS011;7481;53.750;10.570;2023-03-01T00:03:17;6.50;;;3.30;;
14778;SDS011;7481;53.750;10.570;2023-03-01T00:06:05;7.40;;;3.37;;
14778;SDS011;7481;53.750;10.570;2023-03-01T00:08:52;5.43;;;3.30;;
14778;SDS011;7481;53.750;10.570;2023-03-01T00:11:40;5.30;;;3.10;;
14778;SDS011;7481;53.750;10.570;2023-03-01T00:14:27;7.03;;;3.40;;
14778;SDS011;7481;53.750;10.570;2023-03-01T00:17:15;8.43;;;3.60;;
14778;SDS011;7481;53.750;10.570;2023-03-01T00:20:03;6.17;;;3.33;;
14778;SDS011;7481;53.750;10.570;2023-03-01T00:22:54;5.40;;;3.30;;
14778;SDS011;7481;53.750;10.570;2023-03-01T00:25:42;7.33;;;3.70;;
14778;SDS011;7481;53.750;10.570;2023-03-01T00:28:29;7.00;;;3.07;;
14778;SDS011;7481;53.750;10.570;2023-03-01T00:31:20;7.70;;;2.90;;
14778;SDS011;7481;53.750;10.570;2023-03-01T00:34:08;4.63;;;3.67;;
14778;SDS011;7481;53.750;10.570;2023-03-01T00:36:56;6.07;;;3.47;;
14778;SDS011;7481;53.750;10.570;2023-03-01T00:39:51;8.53;;;3.73;;
14778;SDS011;7481;53.750;10.570;2023-03-01T00:42:38;5.33;;;3.60;;
14778;SDS011;7481;53.750;10.570;2023-03-01T00:45:26;6.53;;;4.20;;
14778;SDS011;7481;53.750;10.570;2023-03-01T00:48:14;6.47;;;3.40;;
14778;SDS011;7481;53.750;10.570;2023-03-01T00:51:08;5.27;;;3.47;;
14778;SDS011;7481;53.750;10.570;2023-03-01T00:53:56;5.23;;;3.67;;
14778;SDS011;7481;53.750;10.570;2023-03-01T00:56:44;5.73;;;3.40;;
14778;SDS011;7481;53.750;10.570;2023-03-01T00:59:31;5.97;;;4.23;;
14778;SDS011;7481;53.750;10.570;2023-03-01T01:02:19;6.73;;;3.83;;
14778;SDS011;7481;53.750;10.570;2023-03-01T01:05:07;5.93;;;4.00;;
14778;SDS011;7481;53.750;10.570;2023-03-01T01:07:54;5.93;;;3.60;;
14778;SDS011;7481;53.750;10.570;2023-03-01T01:10:43;5.47;;;3.43;;
14778;SDS011;7481;53.750;10.570;2023-03-01T01:13:30;6.53;;;4.20;;
14778;SDS011;7481;53.750;10.570;2023-03-01T01:16:18;5.40;;;3.67;;
14778;SDS011;7481;53.750;10.570;2023-03-01T01:19:06;5.97;;;4.27;;
14778;SDS011;7481;53.750;10.570;2023-03-01T01:21:54;6.90;;;4.40;;
14778;SDS011;7481;53.750;10.570;2023-03-01T01:24:41;7.93;;;4.33;;
14778;SDS011;7481;53.750;10.570;2023-03-01T01:27:29;6.43;;;4.37;;
14778;SDS011;7481;53.750;10.570;2023-03-01T01:30:16;5.70;;;3.90;;
14778;SDS011;7481;53.750;10.570;2023-03-01T01:33:04;4.97;;;3.83;;
14778;SDS011;7481;53.750;10.570;2023-03-01T01:35:51;6.37;;;3.77;;
14778;SDS011;7481;53.750;10.570;2023-03-01T01:38:39;7.00;;;3.97;;
14778;SDS011;7481;53.750;10.570;2023-03-01T01:41:28;7.73;;;4.10;;
14778;SDS011;7481;53.750;10.570;2023-03-01T01:44:23;6.17;;;4.17;;
14778;SDS011;7481;53.750;10.570;2023-03-01T01:47:20;13.03;;;4.33;;
14778;SDS011;7481;53.750;10.570;2023-03-01T01:50:09;7.87;;;5.10;;
14778;SDS011;7481;53.750;10.570;2023-03-01T01:53:08;7.57;;;4.90;;
14778;SDS011;7481;53.750;10.570;2023-03-01T01:55:58;6.77;;;3.90;;
14778;SDS011;7481;53.750;10.570;2023-03-01T01:58:47;6.50;;;4.70;;
14778;SDS011;7481;53.750;10.570;2023-03-01T02:01:35;6.97;;;4.53;;
14778;SDS011;7481;53.750;10.570;2023-03-01T02:04:22;5.30;;;3.87;;
14778;SDS011;7481;53.750;10.570;2023-03-01T02:07:19;7.77;;;3.87;;
14778;SDS011;7481;53.750;10.570;2023-03-01T02:10:08;6.20;;;3.97;;
14778;SDS011;7481;53.750;10.570;2023-03-01T02:12:56;6.47;;;4.17;;
14778;SDS011;7481;53.750;10.570;2023-03-01T02:15:44;8.13;;;4.70;;
14778;SDS011;7481;53.750;10.570;2023-03-01T02:18:32;6.23;;;4.23;;
14778;SDS011;7481;53.750;10.570;2023-03-01T02:21:30;6.27;;;3.97;;
14778;SDS011;7481;53.750;10.570;2023-03-01T02:27:08;6.87;;;4.27;;
14778;SDS011;7481;53.750;10.570;2023-03-01T02:29:56;6.63;;;4.43;;
14778;SDS011;7481;53.750;10.570;2023-03-01T02:32:44;10.00;;;4.40;;
14778;SDS011;7481;53.750;10.570;2023-03-01T02:35:34;6.57;;;4.27;;
14778;SDS011;7481;53.750;10.570;2023-03-01T02:38:22;13.07;;;6.57;;
14778;SDS011;7481;53.750;10.570;2023-03-01T02:41:10;7.53;;;4.67;;
14778;SDS011;7481;53.750;10.570;2023-03-01T02:43:58;10.07;;;5.80;;
14778;SDS011;7481;53.750;10.570;2023-03-01T02:46:48;11.37;;;6.67;;
14778;SDS011;7481;53.750;10.570;2023-03-01T02:49:36;13.27;;;5.90;;
14778;SDS011;7481;53.750;10.570;2023-03-01T02:52:33;8.63;;;6.03;;
14778;SDS011;7481;53.750;10.570;2023-03-01T02:55:23;11.93;;;6.57;;
14778;SDS011;7481;53.750;10.570;2023-03-01T02:58:10;9.30;;;5.53;;
14778;SDS011;7481;53.750;10.570;2023-03-01T03:00:58;11.63;;;6.60;;
14778;SDS011;7481;53.750;10.570;2023-03-01T03:03:47;11.50;;;6.43;;
14778;SDS011;7481;53.750;10.570;2023-03-01T03:06:35;11.50;;;6.63;;
14778;SDS011;7481;53.750;10.570;2023-03-01T03:09:22;11.37;;;6.83;;
14778;SDS011;7481;53.750;10.570;2023-03-01T03:12:09;11.87;;;6.77;;
14778;SDS011;7481;53.750;10.570;2023-03-01T03:14:57;13.23;;;6.40;;
14778;SDS011;7481;53.750;10.570;2023-03-01T03:17:44;12.73;;;7.90;;
14778;SDS011;7481;53.750;10.570;2023-03-01T03:20:32;13.00;;;7.20;;
14778;SDS011;7481;53.750;10.570;2023-03-01T03:23:20;12.13;;;7.07;;
14778;SDS011;7481;53.750;10.570;2023-03-01T03:26:08;18.60;;;8.10;;
14778;SDS011;7481;53.750;10.570;2023-03-01T03:28:55;20.00;;;9.60;;
14778;SDS011;7481;53.750;10.570;2023-03-01T03:31:43;19.93;;;10.70;;
14778;SDS011;7481;53.750;10.570;2023-03-01T03:34:30;20.43;;;10.03;;
14778;SDS011;7481;53.750;10.570;2023-03-01T03:37:18;17.93;;;9.93;;
14778;SDS011;7481;53.750;10.570;2023-03-01T03:40:24;23.53;;;10.50;;
14778;SDS011;7481;53.750;10.570;2023-03-01T03:43:13;24.30;;;11.70;;
14778;SDS011;7481;53.750;10.570;2023-03-01T03:46:01;20.70;;;10.60;;
14778;SDS011;7481;53.750;10.570;2023-03-01T03:48:52;25.20;;;12.50;;
14778;SDS011;7481;53.750;10.570;2023-03-01T03:51:39;26.10;;;12.97;;
14778;SDS011;7481;53.750;10.570;2023-03-01T03:54:26;29.87;;;12.97;;
14778;SDS011;7481;53.750;10.570;2023-03-01T03:57:14;25.30;;;12.87;;
14778;SDS011;7481;53.750;10.570;2023-03-01T04:00:01;28.80;;;12.87;;
14778;SDS011;7481;53.750;10.570;2023-03-01T04:02:51;27.17;;;14.07;;
14778;SDS011;7481;53.750;10.570;2023-03-01T04:05:42;32.57;;;13.60;;
14778;SDS011;7481;53.750;10.570;2023-03-01T04:08:30;33.67;;;12.67;;
14778;SDS011;7481;53.750;10.570;2023-03-01T04:11:17;43.03;;;21.47;;
14778;SDS011;7481;53.750;10.570;2023-03-01T04:14:14;47.90;;;22.47;;
14778;SDS011;7481;53.750;10.570;2023-03-01T04:17:01;45.43;;;21.77;;
14778;SDS011;7481;53.750;10.570;2023-03-01T04:19:51;34.73;;;15.60;;
14778;SDS011;7481;53.750;10.570;2023-03-01T04:22:39;36.13;;;16.77;;
14778;SDS011;7481;53.750;10.570;2023-03-01T04:25:27;29.90;;;16.10;;
14778;SDS011;7481;53.750;10.570;2023-03-01T04:28:14;35.97;;;17.20;;
14778;SDS011;7481;53.750;10.570;2023-03-01T04:31:03;31.67;;;15.43;;
14778;SDS011;7481;53.750;10.570;2023-03-01T04:34:00;31.70;;;15.37;;
14778;SDS011;7481;53.750;10.570;2023-03-01T04:36:47;32.77;;;15.53;;
14778;SDS011;7481;53.750;10.570;2023-03-01T04:39:35;39.83;;;20.00;;
14778;SDS011;7481;53.750;10.570;2023-03-01T04:42:31;36.60;;;17.07;;
14778;SDS011;7481;53.750;10.570;2023-03-01T04:45:19;36.10;;;17.07;;
14778;SDS011;7481;53.750;10.570;2023-03-01T04:48:06;34.73;;;16.83;;
14778;SDS011;7481;53.750;10.570;2023-03-01T04:50:54;34.63;;;15.30;;
14778;SDS011;7481;53.750;10.570;2023-03-01T04:53:41;31.73;;;16.67;;
14778;SDS011;7481;53.750;10.570;2023-03-01T04:56:29;35.37;;;16.03;;
14778;SDS011;7481;53.750;10.570;2023-03-01T04:59:17;31.83;;;15.73;;
14778;SDS011;7481;53.750;10.570;2023-03-01T05:02:08;32.23;;;15.60;;
14778;SDS011;7481;53.750;10.570;2023-03-01T05:04:56;27.27;;;14.70;;
14778;SDS011;7481;53.750;10.570;2023-03-01T05:07:44;37.27;;;16.30;;
14778;SDS011;7481;53.750;10.570;2023-03-01T05:10:31;30.47;;;15.67;;
14778;SDS011;7481;53.750;10.570;2023-03-01T05:13:21;32.33;;;15.53;;
14778;SDS011;7481;53.750;10.570;2023-03-01T05:16:09;30.63;;;15.00;;
14778;SDS011;7481;53.750;10.570;2023-03-01T05:18:58;33.37;;;15.97;;
14778;SDS011;7481;53.750;10.570;2023-03-01T05:21:45;32.10;;;15.80;;
14778;SDS011;7481;53.750;10.570;2023-03-01T05:24:48;36.07;;;16.20;;
14778;SDS011;7481;53.750;10.570;2023-03-01T05:27:35;33.67;;;16.73;;
14778;SDS011;7481;53.750;10.570;2023-03-01T05:30:23;34.07;;;15.90;;
14778;SDS011;7481;53.750;10.570;2023-03-01T05:33:10;35.60;;;16.40;;
14778;SDS011;7481;53.750;10.570;2023-03-01T05:36:02;31.73;;;15.43;;
14778;SDS011;7481;53.750;10.570;2023-03-01T05:38:49;36.27;;;16.37;;
14778;SDS011;7481;53.750;10.570;2023-03-01T05:41:37;32.83;;;16.30;;
14778;SDS011;7481;53.750;10.570;2023-03-01T05:44:24;29.30;;;15.23;;
14778;SDS011;7481;53.750;10.570;2023-03-01T05:47:12;31.50;;;16.10;;
14778;SDS011;7481;53.750;10.570;2023-03-01T05:49:59;34.50;;;16.20;;
14778;SDS011;7481;53.750;10.570;2023-03-01T05:52:47;31.27;;;14.87;;
14778;SDS011;7481;53.750;10.570;2023-03-01T05:55:35;34.70;;;17.20;;
14778;SDS011;7481;53.750;10.570;2023-03-01T05:58:23;34.13;;;17.23;;
14778;SDS011;7481;53.750;10.570;2023-03-01T06:01:11;29.47;;;14.83;;
14778;SDS011;7481;53.750;10.570;2023-03-01T06:03:59;28.07;;;15.20;;
14778;SDS011;7481;53.750;10.570;2023-03-01T06:06:47;31.03;;;15.23;;
14778;SDS011;7481;53.750;10.570;2023-03-01T06:09:34;28.93;;;15.43;;
14778;SDS011;7481;53.750;10.570;2023-03-01T06:12:22;31.47;;;15.90;;
14778;SDS011;7481;53.750;10.570;2023-03-01T06:15:10;28.37;;;14.33;;
14778;SDS011;7481;53.750;10.570;2023-03-01T06:17:57;26.20;;;14.00;;
14778;SDS011;7481;53.750;10.570;2023-03-01T06:20:52;27.23;;;13.63;;
14778;SDS011;7481;53.750;10.570;2023-03-01T06:23:39;25.40;;;13.53;;
14778;SDS011;7481;53.750;10.570;2023-03-01T06:26:27;29.13;;;14.23;;
14778;SDS011;7481;53.750;10.570;2023-03-01T06:29:14;26.27;;;13.20;;
14778;SDS011;7481;53.750;10.570;2023-03-01T06:32:02;27.77;;;14.07;;
14778;SDS011;7481;53.750;10.570;2023-03-01T06:34:49;26.07;;;13.93;;
14778;SDS011;7481;53.750;10.570;2023-03-01T06:37:37;25.97;;;14.20;;
14778;SDS011;7481;53.750;10.570;2023-03-01T06:40:24;28.47;;;14.80;;
14778;SDS011;7481;53.750;10.570;2023-03-01T06:43:12;31.70;;;15.00;;
14778;SDS011;7481;53.750;10.570;2023-03-01T06:45:59;27.30;;;15.17;;
14778;SDS011;7481;53.750;10.570;2023-03-01T06:48:47;23.77;;;14.00;;
14778;SDS011;7481;53.750;10.570;2023-03-01T06:51:36;25.07;;;14.37;;
14778;SDS011;7481;53.750;10.570;2023-03-01T06:54:24;24.80;;;13.43;;
14778;SDS011;7481;53.750;10.570;2023-03-01T06:57:11;23.43;;;13.37;;
14778;SDS011;7481;53.750;10.570;2023-03-01T06:59:58;24.67;;;13.57;;
14778;SDS011;7481;53.750;10.570;2023-03-01T07:02:46;20.03;;;12.20;;
14778;SDS011;7481;53.750;10.570;2023-03-01T07:05:33;22.60;;;13.60;;
14778;SDS011;7481;53.750;10.570;2023-03-01T07:08:21;23.93;;;13.47;;
14778;SDS011;7481;53.750;10.570;2023-03-01T07:11:08;28.93;;;14.40;;
14778;SDS011;7481;53.750;10.570;2023-03-01T07:13:55;26.53;;;15.30;;
14778;SDS011;7481;53.750;10.570;2023-03-01T07:16:44;27.43;;;14.23;;
14778;SDS011;7481;53.750;10.570;2023-03-01T07:19:32;27.60;;;14.77;;
14778;SDS011;7481;53.750;10.570;2023-03-01T07:22:19;28.47;;;14.47;;
14778;SDS011;7481;53.750;10.570;2023-03-01T07:25:07;26.27;;;13.83;;
14778;SDS011;7481;53.750;10.570;2023-03-01T07:27:54;24.33;;;15.00;;
14778;SDS011;7481;53.750;10.570;2023-03-01T07:30:42;25.87;;;14.63;;
14778;SDS011;7481;53.750;10.570;2023-03-01T07:33:29;24.33;;;14.03;;
14778;SDS011;7481;53.750;10.570;2023-03-01T07:36:16;25.30;;;14.50;;
14778;SDS011;7481;53.750;10.570;2023-03-01T07:39:04;29.10;;;14.67;;
14778;SDS011;7481;53.750;10.570;2023-03-01T07:41:51;27.20;;;15.07;;
14778;SDS011;7481;53.750;10.570;2023-03-01T07:44:39;26.90;;;15.10;;
14778;SDS011;7481;53.750;10.570;2023-03-01T07:47:26;26.07;;;15.77;;
14778;SDS011;7481;53.750;10.570;2023-03-01T07:50:13;27.13;;;15.43;;
14778;SDS011;7481;53.750;10.570;2023-03-01T07:53:01;26.80;;;15.70;;
14778;SDS011;7481;53.750;10.570;2023-03-01T07:55:49;26.73;;;16.00;;
14778;SDS011;7481;53.750;10.570;2023-03-01T07:58:40;26.27;;;15.97;;
14778;SDS011;7481;53.750;10.570;2023-03-01T08:01:27;27.23;;;14.53;;
14778;SDS011;7481;53.750;10.570;2023-03-01T08:04:15;26.97;;;14.83;;
14778;SDS011;7481;53.750;10.570;2023-03-01T08:07:04;29.63;;;16.23;;
14778;SDS011;7481;53.750;10.570;2023-03-01T08:09:51;35.90;;;22.70;;
14778;SDS011;7481;53.750;10.570;2023-03-01T08:12:39;37.57;;;23.30;;
14778;SDS011;7481;53.750;10.570;2023-03-01T08:15:26;30.13;;;18.57;;
14778;SDS011;7481;53.750;10.570;2023-03-01T08:18:13;33.47;;;18.40;;
14778;SDS011;7481;53.750;10.570;2023-03-01T08:21:08;29.27;;;17.43;;
14778;SDS011;7481;53.750;10.570;2023-03-01T08:23:56;25.90;;;15.77;;
14778;SDS011;7481;53.750;10.570;2023-03-01T08:26:43;24.37;;;15.40;;
14778;SDS011;7481;53.750;10.570;2023-03-01T08:29:31;27.60;;;16.20;;
14778;SDS011;7481;53.750;10.570;2023-03-01T08:32:18;23.17;;;14.80;;
14778;SDS011;7481;53.750;10.570;2023-03-01T08:35:06;26.33;;;14.50;;
14778;SDS011;7481;53.750;10.570;2023-03-01T08:37:54;25.30;;;15.03;;
14778;SDS011;7481;53.750;10.570;2023-03-01T08:40:41;26.90;;;15.20;;
14778;SDS011;7481;53.750;10.570;2023-03-01T08:43:28;29.60;;;16.43;;
14778;SDS011;7481;53.750;10.570;2023-03-01T08:46:16;23.83;;;15.43;;
14778;SDS011;7481;53.750;10.570;2023-03-01T08:49:07;23.77;;;14.37;;
14778;SDS011;7481;53.750;10.570;2023-03-01T08:51:55;22.40;;;13.63;;
14778;SDS011;7481;53.750;10.570;2023-03-01T08:54:42;23.53;;;13.83;;
14778;SDS011;7481;53.750;10.570;2023-03-01T08:57:30;19.83;;;12.93;;
14778;SDS011;7481;53.750;10.570;2023-03-01T09:00:17;18.93;;;11.77;;
14778;SDS011;7481;53.750;10.570;2023-03-01T09:03:05;18.33;;;11.50;;
14778;SDS011;7481;53.750;10.570;2023-03-01T09:05:52;20.90;;;13.23;;
14778;SDS011;7481;53.750;10.570;2023-03-01T09:08:41;21.57;;;13.50;;
14778;SDS011;7481;53.750;10.570;2023-03-01T09:11:29;20.00;;;13.40;;
14778;SDS011;7481;53.750;10.570;2023-03-01T09:14:16;18.40;;;12.33;;
14778;SDS011;7481;53.750;10.570;2023-03-01T09:17:04;19.27;;;12.03;;
14778;SDS011;7481;53.750;10.570;2023-03-01T09:19:51;18.30;;;12.10;;
14778;SDS011;7481;53.750;10.570;2023-03-01T09:22:39;18.33;;;12.23;;
14778;SDS011;7481;53.750;10.570;2023-03-01T09:25:26;16.40;;;12.03;;
14778;SDS011;7481;53.750;10.570;2023-03-01T09:28:14;19.10;;;12.13;;
14778;SDS011;7481;53.750;10.570;2023-03-01T09:31:15;17.17;;;11.37;;
14778;SDS011;7481;53.750;10.570;2023-03-01T09:34:03;17.17;;;12.20;;
14778;SDS011;7481;53.750;10.570;2023-03-01T09:36:50;18.07;;;13.43;;
14778;SDS011;7481;53.750;10.570;2023-03-01T09:39:38;17.83;;;12.10;;
14778;SDS011;7481;53.750;10.570;2023-03-01T09:42:25;16.67;;;11.83;;
14778;SDS011;7481;53.750;10.570;2023-03-01T09:45:33;19.23;;;12.33;;
14778;SDS011;7481;53.750;10.570;2023-03-01T09:48:21;18.13;;;12.20;;
14778;SDS011;7481;53.750;10.570;2023-03-01T09:51:16;18.87;;;12.20;;
14778;SDS011;7481;53.750;10.570;2023-03-01T09:54:05;15.50;;;12.83;;
14778;SDS011;7481;53.750;10.570;2023-03-01T10:00:01;16.05;;;12.70;;
14778;SDS011;7481;53.750;10.570;2023-03-01T10:05:59;17.42;;;12.18;;
14778;SDS011;7481;53.750;10.570;2023-03-01T10:11:39;16.73;;;12.27;;
14778;SDS011;7481;53.750;10.570;2023-03-01T10:14:30;17.23;;;12.32;;
14778;SDS011;7481;53.750;10.570;2023-03-01T10:17:24;16.13;;;12.57;;
14778;SDS011;7481;53.750;10.570;2023-03-01T10:23:07;18.92;;;12.00;;
14778;SDS011;7481;53.750;10.570;2023-03-01T10:29:05;14.85;;;11.38;;
14778;SDS011;7481;53.750;10.570;2023-03-01T10:31:56;13.48;;;10.57;;
14778;SDS011;7481;53.750;10.570;2023-03-01T10:34:44;13.77;;;10.75;;
14778;SDS011;7481;53.750;10.570;2023-03-01T10:37:31;15.32;;;11.70;;
14778;SDS011;7481;53.750;10.570;2023-03-01T10:40:19;11.70;;;9.90;;
14778;SDS011;7481;53.750;10.570;2023-03-01T10:43:10;14.18;;;10.43;;
14778;SDS011;7481;53.750;10.570;2023-03-01T10:45:58;13.30;;;10.00;;
14778;SDS011;7481;53.750;10.570;2023-03-01T10:48:46;14.63;;;10.50;;
14778;SDS011;7481;53.750;10.570;2023-03-01T10:51:52;12.57;;;9.93;;
14778;SDS011;7481;53.750;10.570;2023-03-01T10:54:40;14.48;;;9.85;;
14778;SDS011;7481;53.750;10.570;2023-03-01T10:57:29;14.32;;;10.30;;
14778;SDS011;7481;53.750;10.570;2023-03-01T11:00:21;12.27;;;8.23;;
14778;SDS011;7481;53.750;10.570;2023-03-01T11:03:10;13.95;;;10.27;;
14778;SDS011;7481;53.750;10.570;2023-03-01T11:05:59;14.80;;;10.82;;
14778;SDS011;7481;53.750;10.570;2023-03-01T11:08:48;16.85;;;11.52;;
14778;SDS011;7481;53.750;10.570;2023-03-01T11:11:36;15.48;;;11.55;;
14778;SDS011;7481;53.750;10.570;2023-03-01T11:14:25;14.93;;;11.05;;
14778;SDS011;7481;53.750;10.570;2023-03-01T11:20:02;17.25;;;12.07;;
14778;SDS011;7481;53.750;10.570;2023-03-01T11:25:41;16.67;;;11.77;;
14778;SDS011;7481;53.750;10.570;2023-03-01T11:28:29;13.88;;;10.18;;
14778;SDS011;7481;53.750;10.570;2023-03-01T11:31:17;9.88;;;7.30;;
14778;SDS011;7481;53.750;10.570;2023-03-01T11:34:07;12.73;;;10.00;;
14778;SDS011;7481;53.750;10.570;2023-03-01T11:36:59;14.70;;;10.73;;
14778;SDS011;7481;53.750;10.570;2023-03-01T11:39:50;13.80;;;9.85;;
14778;SDS011;7481;53.750;10.570;2023-03-01T11:48:40;12.45;;;8.90;;
14778;SDS011;7481;53.750;10.570;2023-03-01T11:51:41;10.80;;;7.65;;
14778;SDS011;7481;53.750;10.570;2023-03-01T12:03:27;8.53;;;6.33;;
14778;SDS011;7481;53.750;10.570;2023-03-01T12:12:36;8.77;;;5.77;;
14778;SDS011;7481;53.750;10.570;2023-03-01T12:30:17;6.80;;;5.27;;
14778;SDS011;7481;53.750;10.570;2023-03-01T12:39:22;5.57;;;4.73;;
14778;SDS011;7481;53.750;10.570;2023-03-01T12:45:12;5.70;;;4.30;;
14778;SDS011;7481;53.750;10.570;2023-03-01T12:48:22;6.70;;;4.70;;
14778;SDS011;7481;53.750;10.570;2023-03-01T12:51:14;6.43;;;4.73;;
14778;SDS011;7481;53.750;10.570;2023-03-01T12:54:18;7.70;;;5.00;;
14778;SDS011;7481;53.750;10.570;2023-03-01T13:00:32;6.87;;;5.27;;
14778;SDS011;7481;53.750;10.570;2023-03-01T13:03:23;6.47;;;4.80;;
14778;SDS011;7481;53.750;10.570;2023-03-01T13:06:19;7.53;;;5.27;;
14778;SDS011;7481;53.750;10.570;2023-03-01T13:20:59;2.97;;;2.10;;
14778;SDS011;7481;53.750;10.570;2023-03-01T13:23:47;2.50;;;2.23;;
14778;SDS011;7481;53.750;10.570;2023-03-01T13:26:53;2.90;;;2.37;;
14778;SDS011;7481;53.750;10.570;2023-03-01T13:29:46;3.40;;;2.57;;
14778;SDS011;7481;53.750;10.570;2023-03-01T13:32:35;2.77;;;2.33;;
14778;SDS011;7481;53.750;10.570;2023-03-01T13:35:43;3.33;;;2.07;;
14778;SDS011;7481;53.750;10.570;2023-03-01T13:44:33;4.20;;;3.27;;
14778;SDS011;7481;53.750;10.570;2023-03-01T13:47:22;5.20;;;3.70;;
14778;SDS011;7481;53.750;10.570;2023-03-01T13:50:16;11.77;;;5.33;;
14778;SDS011;7481;53.750;10.570;2023-03-01T13:53:04;6.67;;;4.40;;
14778;SDS011;7481;53.750;10.570;2023-03-01T13:55:57;5.27;;;4.40;;
14778;SDS011;7481;53.750;10.570;2023-03-01T13:58:47;5.20;;;3.77;;
14778;SDS011;7481;53.750;10.570;2023-03-01T14:01:35;5.13;;;4.07;;
14778;SDS011;7481;53.750;10.570;2023-03-01T14:04:30;7.83;;;4.87;;
14778;SDS011;7481;53.750;10.570;2023-03-01T14:07:22;4.93;;;3.80;;
14778;SDS011;7481;53.750;10.570;2023-03-01T14:10:16;5.43;;;3.53;;
14778;SDS011;7481;53.750;10.570;2023-03-01T14:16:17;4.07;;;3.67;;
14778;SDS011;7481;53.750;10.570;2023-03-01T14:22:22;5.50;;;4.17;;
14778;SDS011;7481;53.750;10.570;2023-03-01T14:25:23;5.10;;;4.20;;
14778;SDS011;7481;53.750;10.570;2023-03-01T14:28:16;5.80;;;4.47;;
14778;SDS011;7481;53.750;10.570;2023-03-01T14:31:29;6.10;;;4.67;;
14778;SDS011;7481;53.750;10.570;2023-03-01T14:34:18;6.25;;;5.20;;
14778;SDS011;7481;53.750;10.570;2023-03-01T14:37:26;8.43;;;5.20;;
14778;SDS011;7481;53.750;10.570;2023-03-01T14:40:33;5.47;;;4.67;;
14778;SDS011;7481;53.750;10.570;2023-03-01T14:43:22;7.33;;;4.73;;
14778;SDS011;7481;53.750;10.570;2023-03-01T14:46:19;5.17;;;4.20;;
14778;SDS011;7481;53.750;10.570;2023-03-01T14:49:14;6.57;;;4.53;;
14778;SDS011;7481;53.750;10.570;2023-03-01T14:52:03;7.60;;;4.87;;
14778;SDS011;7481;53.750;10.570;2023-03-01T14:54:52;6.03;;;5.00;;
14778;SDS011;7481;53.750;10.570;2023-03-01T14:57:42;6.03;;;4.40;;
14778;SDS011;7481;53.750;10.570;2023-03-01T15:00:30;5.77;;;4.03;;
14778;SDS011;7481;53.750;10.570;2023-03-01T15:06:22;5.63;;;4.43;;
14778;SDS011;7481;53.750;10.570;2023-03-01T15:09:13;6.13;;;4.50;;
14778;SDS011;7481;53.750;10.570;2023-03-01T15:15:30;5.73;;;4.53;;
14778;SDS011;7481;53.750;10.570;2023-03-01T15:18:19;8.40;;;4.50;;
14778;SDS011;7481;53.750;10.570;2023-03-01T15:21:09;6.10;;;4.67;;
14778;SDS011;7481;53.750;10.570;2023-03-01T15:27:13;5.80;;;4.80;;
14778;SDS011;7481;53.750;10.570;2023-03-01T15:30:02;6.13;;;4.60;;
14778;SDS011;7481;53.750;10.570;2023-03-01T15:33:15;6.47;;;5.07;;
14778;SDS011;7481;53.750;10.570;2023-03-01T15:39:26;5.83;;;4.90;;
14778;SDS011;7481;53.750;10.570;2023-03-01T15:48:19;6.63;;;5.30;;
14778;SDS011;7481;53.750;10.570;2023-03-01T15:51:10;8.97;;;6.03;;
14778;SDS011;7481;53.750;10.570;2023-03-01T15:54:07;8.93;;;6.57;;
14778;SDS011;7481;53.750;10.570;2023-03-01T15:56:58;8.40;;;6.23;;
14778;SDS011;7481;53.750;10.570;2023-03-01T15:59:46;9.73;;;6.93;;
14778;SDS011;7481;53.750;10.570;2023-03-01T16:02:33;10.50;;;7.57;;
14778;SDS011;7481;53.750;10.570;2023-03-01T16:05:22;9.23;;;7.37;;
14778;SDS011;7481;53.750;10.570;2023-03-01T16:08:11;10.50;;;7.77;;
14778;SDS011;7481;53.750;10.570;2023-03-01T16:10:58;12.27;;;7.90;;
14778;SDS011;7481;53.750;10.570;2023-03-01T16:13:49;12.23;;;8.60;;
14778;SDS011;7481;53.750;10.570;2023-03-01T16:16:37;14.73;;;8.33;;
14778;SDS011;7481;53.750;10.570;2023-03-01T16:19:24;11.90;;;7.80;;
14778;SDS011;7481;53.750;10.570;2023-03-01T16:22:11;11.10;;;7.27;;
14778;SDS011;7481;53.750;10.570;2023-03-01T16:24:59;10.80;;;6.93;;
14778;SDS011;7481;53.750;10.570;2023-03-01T16:27:48;12.07;;;8.30;;
14778;SDS011;7481;53.750;10.570;2023-03-01T16:30:36;15.13;;;7.77;;
14778;SDS011;7481;53.750;10.570;2023-03-01T16:33:24;12.73;;;8.63;;
14778;SDS011;7481;53.750;10.570;2023-03-01T16:36:19;10.93;;;7.37;;
14778;SDS011;7481;53.750;10.570;2023-03-01T16:39:07;12.03;;;8.30;;
14778;SDS011;7481;53.750;10.570;2023-03-01T16:41:55;12.40;;;7.90;;
14778;SDS011;7481;53.750;10.570;2023-03-01T16:44:43;10.83;;;7.43;;
14778;SDS011;7481;53.750;10.570;2023-03-01T16:47:30;12.37;;;8.03;;
14778;SDS011;7481;53.750;10.570;2023-03-01T16:50:18;14.33;;;9.00;;
14778;SDS011;7481;53.750;10.570;2023-03-01T16:53:05;16.67;;;11.07;;
14778;SDS011;7481;53.750;10.570;2023-03-01T16:55:54;18.93;;;12.07;;
14778;SDS011;7481;53.750;10.570;2023-03-01T16:58:42;19.33;;;12.43;;
14778;SDS011;7481;53.750;10.570;2023-03-01T17:01:30;15.67;;;10.63;;
14778;SDS011;7481;53.750;10.570;2023-03-01T17:04:23;19.47;;;11.77;;
14778;SDS011;7481;53.750;10.570;2023-03-01T17:07:11;18.43;;;12.17;;
14778;SDS011;7481;53.750;10.570;2023-03-01T17:09:59;20.57;;;12.70;;
14778;SDS011;7481;53.750;10.570;2023-03-01T17:12:48;18.87;;;12.50;;
14778;SDS011;7481;53.750;10.570;2023-03-01T17:15:40;26.10;;;12.47;;
14778;SDS011;7481;53.750;10.570;2023-03-01T17:18:27;30.17;;;16.50;;
14778;SDS011;7481;53.750;10.570;2023-03-01T17:21:15;27.13;;;15.63;;
14778;SDS011;7481;53.750;10.570;2023-03-01T17:24:03;23.77;;;14.97;;
14778;SDS011;7481;53.750;10.570;2023-03-01T17:26:50;25.90;;;15.60;;
14778;SDS011;7481;53.750;10.570;2023-03-01T17:29:38;24.53;;;14.90;;
14778;SDS011;7481;53.750;10.570;2023-03-01T17:32:26;26.73;;;14.93;;
14778;SDS011;7481;53.750;10.570;2023-03-01T17:35:14;27.07;;;15.50;;
14778;SDS011;7481;53.750;10.570;2023-03-01T17:38:01;24.43;;;15.23;;
14778;SDS011;7481;53.750;10.570;2023-03-01T17:40:49;28.53;;;15.13;;
14778;SDS011;7481;53.750;10.570;2023-03-01T17:43:36;29.13;;;16.20;;
14778;SDS011;7481;53.750;10.570;2023-03-01T17:46:24;24.37;;;14.70;;
14778;SDS011;7481;53.750;10.570;2023-03-01T17:49:12;28.97;;;15.33;;
14778;SDS011;7481;53.750;10.570;2023-03-01T17:51:59;35.50;;;19.87;;
14778;SDS011;7481;53.750;10.570;2023-03-01T17:54:47;35.13;;;19.80;;
14778;SDS011;7481;53.750;10.570;2023-03-01T17:57:37;53.30;;;19.07;;
14778;SDS011;7481;53.750;10.570;2023-03-01T18:00:26;41.80;;;21.40;;
14778;SDS011;7481;53.750;10.570;2023-03-01T18:03:14;91.00;;;24.23;;
14778;SDS011;7481;53.750;10.570;2023-03-01T18:06:02;59.67;;;24.03;;
14778;SDS011;7481;53.750;10.570;2023-03-01T18:08:50;58.70;;;20.67;;
14778;SDS011;7481;53.750;10.570;2023-03-01T18:11:38;59.67;;;21.43;;
14778;SDS011;7481;53.750;10.570;2023-03-01T18:14:27;94.80;;;24.20;;
14778;SDS011;7481;53.750;10.570;2023-03-01T18:17:20;52.00;;;22.40;;
14778;SDS011;7481;53.750;10.570;2023-03-01T18:20:09;100.20;;;23.30;;
14778;SDS011;7481;53.750;10.570;2023-03-01T18:22:58;79.00;;;38.70;;
14778;SDS011;7481;53.750;10.570;2023-03-01T18:25:46;64.83;;;24.37;;
14778;SDS011;7481;53.750;10.570;2023-03-01T18:28:33;69.57;;;21.70;;
14778;SDS011;7481;53.750;10.570;2023-03-01T18:31:21;55.60;;;24.73;;
14778;SDS011;7481;53.750;10.570;2023-03-01T18:34:10;45.40;;;19.73;;
14778;SDS011;7481;53.750;10.570;2023-03-01T18:36:57;59.47;;;20.57;;